Αναφορές Αεροδρομίων

 

KSJC - San Jose, California, USA
Distance from station: ΒΑ 14km
Ενημερώθηκε: 17/04/2024 02:53
Σχεδόν νεφελώδης
Σχεδόν νεφελώδης
 Ανεμος από ΒΔ
Ανεμος: ΒΔ 17 km/h
Θερμοκρασία: 24°C
Σημείο Δρόσου: 11°C
Υγρασία: 44%
Βαρόμετρο: 1017.9 hPa
Clouds: Σχεδόν νεφελώδης
Visibility: 16 km
Cloud details: Few Clouds 1524 m
Σχεδόν νεφελώδης 3658 m
2024/04/16 23:53 KSJC 162353Z 31009KT 10SM FEW050 BKN120 24/11 A3006 RMK AO2 SLP178 T02390111 10250 20189 56014
KNUQ - Moffett Nas/Mtn, California, USA
Distance from station: Β 14km
Ενημερώθηκε: 17/04/2024 02:55
Αίθριος
Αίθριος
 Ανεμος από Β
Ανεμος: Β 22 km/h
Θερμοκρασία: 21°C
Σημείο Δρόσου: 13°C
Υγρασία: 60%
Βαρόμετρο: 1018.3 hPa
Clouds: Αίθριος
Visibility: 16 km
2024/04/16 23:55 KNUQ 162355Z AUTO 35012KT 10SM CLR 21/13 A3007 RMK AO2
 
KPAO - Palo Alto, California, USA
Distance from station: ΒΒΔ 23km
Ενημερώθηκε: 17/04/2024 02:47
Αίθριος
Αίθριος
 Ανεμος από ΒΒΔ
Ανεμος: ΒΒΔ 17 km/h
Θερμοκρασία: 22°C
Σημείο Δρόσου: 12°C
Υγρασία: 53%
Βαρόμετρο: 1018.3 hPa
Clouds: Αίθριος
Visibility: 16 km
2024/04/16 23:47 KPAO 162347Z 34009KT 10SM SKC 22/12 A3007
KRHV - San Jose/Reid, California, USA
Distance from station: ΑΒΑ 19km
Ενημερώθηκε: 17/04/2024 02:47
Few Clouds
Few Clouds
 Ανεμος από ΒΔ
Ανεμος: ΒΔ 20 km/h
Θερμοκρασία: 24°C
Σημείο Δρόσου: 13°C
Υγρασία: 50%
Βαρόμετρο: 1017.9 hPa
Clouds: Few Clouds
Visibility: 16 km
Cloud details: Few Clouds 3048 m
2024/04/16 23:47 KRHV 162347Z 31011KT 10SM FEW100 24/13 A3006
 
KOAK - Oakland, California, USA
Distance from station: ΒΒΔ 50km
Ενημερώθηκε: 17/04/2024 02:53
Μερικώς νεφελώδης
Μερικώς νεφελώδης
 Ανεμος από ΔΒΔ
Ανεμος: ΔΒΔ 17 km/h
Θερμοκρασία: 20°C
Σημείο Δρόσου: 13°C
Υγρασία: 64%
Βαρόμετρο: 1018.6 hPa
Clouds: Μερικώς νεφελώδης
Visibility: 16 km
Cloud details: Μερικώς νεφελώδης 7620 m
2024/04/16 23:53 KOAK 162353Z 30009KT 10SM SCT250 20/13 A3008 RMK AO2 SLP187 T02000128 10217 20144 58013
KSQL - San Carlos Airpo, California, USA
Distance from station: ΒΔ 34km
Ενημερώθηκε: 17/04/2024 02:47
Αίθριος
Αίθριος
 Ανεμος από ΒΔ
Ανεμος: ΒΔ 15 km/h
Θερμοκρασία: 23°C
Σημείο Δρόσου: 8°C
Υγρασία: 38%
Βαρόμετρο: 1018.3 hPa
Clouds: Αίθριος
Visibility: 16 km
2024/04/16 23:47 KSQL 162347Z 32008KT 10SM CLR 23/08 A3007
 
KSFO - San Francisco, California, USA
Distance from station: ΒΔ 49km
Ενημερώθηκε: 17/04/2024 02:56
Σχεδόν νεφελώδης
Σχεδόν νεφελώδης
 Ανεμος από ΔΒΔ
Ανεμος: ΔΒΔ 30 km/h
Θερμοκρασία: 19°C
Σημείο Δρόσου: 11°C
Υγρασία: 60%
Βαρόμετρο: 1018.3 hPa
Clouds: Σχεδόν νεφελώδης
Visibility: 16 km
Cloud details: Σχεδόν νεφελώδης 6096 m
2024/04/16 23:56 KSFO 162356Z 30016KT 10SM BKN200 19/11 A3007 RMK AO2 SLP184 T01940111 10222 20150 58013
KE16 - San Martin, California, USA
Distance from station: ΑΝΑ 43km
Ενημερώθηκε: 17/04/2024 02:55
Αίθριος
Αίθριος
 Ανεμος από ΔΒΔ
Ανεμος: ΔΒΔ 13 km/h, Ριπή: 28 km/h
Θερμοκρασία: 24°C
Σημείο Δρόσου: 10°C
Υγρασία: 41%
Βαρόμετρο: 1017.9 hPa
Clouds: Αίθριος
Visibility: 16 km
2024/04/16 23:55 KE16 162355Z AUTO 30007G15KT 10SM CLR 24/10 A3006 RMK AO2 PWINO PNO
 
KWVI - Watsonville, California, USA
Distance from station: ΝΝΑ 44km
Ενημερώθηκε: 17/04/2024 02:53
Αίθριος
Αίθριος
 Ανεμος από ΝΝΔ
Ανεμος: ΝΝΔ 6 km/h
Θερμοκρασία: 20°C
Σημείο Δρόσου: 12°C
Υγρασία: 60%
Βαρόμετρο: 1017.9 hPa
Clouds: Αίθριος
Visibility: 16 km
2024/04/16 23:53 KWVI 162353Z AUTO 21003KT 10SM CLR 20/12 A3006 RMK AO2 SLP180 T02000122 10217 20178 58014
KHAF - Half Moon Bay, California, USA
Distance from station: ΔΒΔ 50km
Ενημερώθηκε: 17/04/2024 02:55
Mist, Αίθριος
Mist, Αίθριος
 Ανεμος από ΒΒΔ
Ανεμος: ΒΒΔ 17 km/h, Ριπή: 26 km/h
Θερμοκρασία: 14°C
Σημείο Δρόσου: 12°C
Υγρασία: 88%
Βαρόμετρο: 1019.3 hPa
Περίληψη: Mist
Clouds: Αίθριος
Visibility: 8 km
2024/04/16 23:55 KHAF 162355Z AUTO 34009G14KT 5SM BR CLR 14/12 A3010 RMK AO2
 
KHWD - Hayward, California, USA
Distance from station: Β 44km
Ενημερώθηκε: 17/04/2024 02:54
Αίθριος
Αίθριος
 Ανεμος από ΔΒΔ
Ανεμος: ΔΒΔ 20 km/h
Θερμοκρασία: 22°C
Σημείο Δρόσου: 12°C
Υγρασία: 53%
Βαρόμετρο: 1018.3 hPa
Clouds: Αίθριος
Visibility: 16 km
2024/04/16 23:54 KHWD 162354Z 29011KT 10SM CLR 22/12 A3007 RMK AO2 SLP191 T02220117 10228 20172 58014
KLVK - Livermore, California, USA
Distance from station: ΒΒΑ 51km
Ενημερώθηκε: 17/04/2024 02:53
Αίθριος
Αίθριος
 Ανεμος από ΔΒΔ
Ανεμος: ΔΒΔ 11 km/h
Θερμοκρασία: 24°C
Σημείο Δρόσου: 12°C
Υγρασία: 47%
Βαρόμετρο: 1017.9 hPa
Clouds: Αίθριος
Visibility: 16 km
2024/04/16 23:53 KLVK 162353Z 30006KT 10SM CLR 24/12 A3006 RMK AO2 SLP175 T02440117 10244 20178 56015